Time;durP1;ratioP1;P1;durP2;ratioP2;P2;SDS_P1;SDS_P2;PMS_P1;PMS_P2;Temp;Humidity;BMP_temperature;BMP_pressure;BME280_temperature;BME280_humidity;BME280_pressure;Samples;Min_cycle;Max_cycle;Signal;HPM_P1;HPM_P2
2023/10/27 00:01:05;;;;;;;;;;;14.40;99.90;;;;;;4947394;29;19977;-85
2023/10/27 00:03:31;;;;;;;;;;;14.40;99.90;;;;;;4955420;28;19958;-85
2023/10/27 00:05:56;;;;;;;;;;;14.50;99.90;;;;;;4939106;29;20020;-82
2023/10/27 00:08:22;;;;;;;;;;;14.50;99.90;;;;;;4938982;29;19910;-86
2023/10/27 00:10:47;;;;;;;;;;;14.60;99.90;;;;;;4939156;29;19906;-85
2023/10/27 00:13:13;;;;;;;;;;;14.60;99.90;;;;;;4938934;29;19910;-84
2023/10/27 00:15:38;;;;;;;;;;;14.70;99.90;;;;;;4956154;29;19906;-84
2023/10/27 00:18:04;;;;;;;;;;;14.70;99.90;;;;;;4946993;29;19922;-85
2023/10/27 00:20:29;;;;;;;;;;;14.80;99.90;;;;;;4938716;29;19957;-85
2023/10/27 00:22:55;;;;;;;;;;;14.80;99.90;;;;;;4956109;29;19945;-83
2023/10/27 00:25:20;;;;;;;;;;;14.70;99.90;;;;;;4938499;29;20029;-85
2023/10/27 00:27:46;;;;;;;;;;;14.90;99.90;;;;;;4941992;29;20057;-84
2023/10/27 00:30:12;;;;;;;;;;;14.90;99.90;;;;;;4955967;29;19922;-83
2023/10/27 00:32:37;;;;;;;;;;;15.00;99.90;;;;;;4938889;29;20287;-82
2023/10/27 00:35:04;;;;;;;;;;;15.00;99.90;;;;;;4935489;29;19911;-83
2023/10/27 00:37:40;;;;;;;;;;;15.00;99.90;;;;;;4936649;29;20008;-82
2023/10/27 00:40:07;;;;;;;;;;;14.90;99.90;;;;;;4955001;29;19906;-82
2023/10/27 00:42:33;;;;;;;;;;;14.90;99.90;;;;;;4927658;29;19928;-85
2023/10/27 00:44:58;;;;;;;;;;;14.90;99.90;;;;;;4938279;29;20386;-84
2023/10/27 00:47:24;;;;;;;;;;;14.90;99.90;;;;;;4955568;29;19913;-83
2023/10/27 00:49:50;;;;;;;;;;;15.00;99.90;;;;;;4935180;29;19913;-84
2023/10/27 00:52:17;;;;;;;;;;;15.10;99.90;;;;;;4935137;29;20350;-85
2023/10/27 00:54:43;;;;;;;;;;;15.20;99.90;;;;;;4935134;29;20366;-85
2023/10/27 00:57:09;;;;;;;;;;;15.40;99.90;;;;;;4934514;29;20389;-83
2023/10/27 00:59:36;;;;;;;;;;;15.50;99.90;;;;;;4935107;29;19907;-84
2023/10/27 01:02:02;;;;;;;;;;;15.40;99.90;;;;;;4936337;29;19906;-84
2023/10/27 01:04:27;;;;;;;;;;;15.30;99.90;;;;;;4943626;29;20008;-86
2023/10/27 01:06:53;;;;;;;;;;;15.20;99.90;;;;;;4938303;29;19917;-83
2023/10/27 01:09:19;;;;;;;;;;;14.80;99.90;;;;;;4956744;29;20009;-85
2023/10/27 01:11:45;;;;;;;;;;;14.50;99.90;;;;;;4938851;29;19913;-86
2023/10/27 01:14:10;;;;;;;;;;;14.40;99.90;;;;;;4918597;29;19907;-86
2023/10/27 01:16:36;;;;;;;;;;;14.40;99.90;;;;;;4933978;29;19918;-82
2023/10/27 01:19:01;;;;;;;;;;;14.30;99.90;;;;;;4919362;29;19919;-83
2023/10/27 01:21:27;;;;;;;;;;;14.20;99.90;;;;;;4918985;29;20359;-83
2023/10/27 01:23:52;;;;;;;;;;;14.20;99.90;;;;;;4919061;29;19911;-86
2023/10/27 01:26:18;;;;;;;;;;;14.20;99.90;;;;;;4918817;29;19907;-86
2023/10/27 01:28:43;;;;;;;;;;;14.20;99.90;;;;;;4936248;29;19917;-86
2023/10/27 01:31:09;;;;;;;;;;;14.10;99.90;;;;;;4918876;29;19915;-86
2023/10/27 01:33:34;;;;;;;;;;;14.10;99.90;;;;;;4936161;29;19907;-86
2023/10/27 01:36:00;;;;;;;;;;;14.10;99.90;;;;;;4918905;29;19907;-85
2023/10/27 01:38:25;;;;;;;;;;;14.10;99.90;;;;;;4912081;29;19915;-85
2023/10/27 01:40:51;;;;;;;;;;;14.10;99.90;;;;;;4948719;29;19915;-85
2023/10/27 01:43:16;;;;;;;;;;;14.00;99.90;;;;;;4935142;29;19906;-82
2023/10/27 01:45:42;;;;;;;;;;;14.00;99.90;;;;;;4937862;29;19907;-82
2023/10/27 01:48:08;;;;;;;;;;;13.90;99.90;;;;;;4955252;29;19953;-82
2023/10/27 01:50:33;;;;;;;;;;;13.70;99.90;;;;;;4934514;29;20427;-82
2023/10/27 01:52:58;;;;;;;;;;;13.70;99.90;;;;;;4934472;29;19907;-85
2023/10/27 01:55:24;;;;;;;;;;;13.70;99.90;;;;;;4934561;29;19907;-86
2023/10/27 01:57:50;;;;;;;;;;;13.80;99.90;;;;;;4937671;29;19966;-86
2023/10/27 02:00:15;;;;;;;;;;;13.80;99.90;;;;;;4937621;29;19970;-82
2023/10/27 02:02:41;;;;;;;;;;;13.90;99.90;;;;;;4934491;29;19907;-86
2023/10/27 02:05:07;;;;;;;;;;;14.10;99.90;;;;;;4955826;29;19927;-82
2023/10/27 02:07:33;;;;;;;;;;;14.30;99.90;;;;;;4944158;29;20422;-82
2023/10/27 02:09:59;;;;;;;;;;;14.50;99.90;;;;;;4936691;29;19958;-82
2023/10/27 02:12:25;;;;;;;;;;;14.60;99.90;;;;;;4926051;29;20021;-81
2023/10/27 02:14:51;;;;;;;;;;;14.80;99.90;;;;;;4935553;29;19954;-83
2023/10/27 02:17:16;;;;;;;;;;;14.90;99.90;;;;;;4944311;29;20290;-85
2023/10/27 02:19:42;;;;;;;;;;;14.90;99.90;;;;;;4937551;29;19973;-83
2023/10/27 02:22:07;;;;;;;;;;;14.80;99.90;;;;;;4942433;29;19911;-84
2023/10/27 02:24:33;;;;;;;;;;;14.80;99.90;;;;;;4935826;29;19918;-84
2023/10/27 02:26:58;;;;;;;;;;;14.90;99.90;;;;;;4936931;29;20009;-82
2023/10/27 02:29:24;;;;;;;;;;;14.90;99.90;;;;;;4939236;29;19907;-84
2023/10/27 02:31:49;;;;;;;;;;;14.90;99.90;;;;;;4938771;29;19906;-84
2023/10/27 02:34:15;;;;;;;;;;;14.90;99.90;;;;;;4937893;29;19911;-84
2023/10/27 02:36:40;;;;;;;;;;;15.00;99.90;;;;;;4963013;29;19895;-82
2023/10/27 02:39:06;;;;;;;;;;;15.00;99.90;;;;;;4965594;29;19894;-83
2023/10/27 02:41:31;;;;;;;;;;;14.90;99.90;;;;;;4938810;29;20259;-85
2023/10/27 02:43:58;;;;;;;;;;;14.90;99.90;;;;;;4921509;29;20376;-84
2023/10/27 02:46:23;;;;;;;;;;;15.00;99.90;;;;;;4949569;29;19946;-81
2023/10/27 02:48:50;;;;;;;;;;;15.00;99.90;;;;;;4939205;29;19958;-84
2023/10/27 02:51:16;;;;;;;;;;;15.20;99.90;;;;;;4937283;29;19913;-82
2023/10/27 02:53:42;;;;;;;;;;;15.20;99.90;;;;;;4937317;29;20357;-81
2023/10/27 02:56:08;;;;;;;;;;;15.30;99.90;;;;;;4937093;29;19954;-83
2023/10/27 02:58:34;;;;;;;;;;;15.30;99.90;;;;;;4937209;29;19914;-81
2023/10/27 03:00:59;;;;;;;;;;;15.30;99.90;;;;;;4940287;29;19937;-84
2023/10/27 03:03:27;;;;;;;;;;;15.30;99.90;;;;;;4957605;29;19907;-81
2023/10/27 03:05:53;;;;;;;;;;;15.30;99.90;;;;;;4958012;29;20279;-84
2023/10/27 03:08:18;;;;;;;;;;;15.20;99.90;;;;;;4957376;29;19933;-84
2023/10/27 03:10:44;;;;;;;;;;;15.20;99.90;;;;;;4939774;29;19956;-84
2023/10/27 03:13:09;;;;;;;;;;;15.20;99.90;;;;;;4923017;29;19914;-84
2023/10/27 03:15:37;;;;;;;;;;;15.10;99.90;;;;;;4938031;29;19906;-84
2023/10/27 03:18:03;;;;;;;;;;;15.10;99.90;;;;;;4914157;29;19919;-84
2023/10/27 03:20:29;;;;;;;;;;;15.10;99.90;;;;;;4919269;29;19907;-81
2023/10/27 03:22:54;;;;;;;;;;;15.10;99.90;;;;;;4918437;29;19934;-84
2023/10/27 03:25:20;;;;;;;;;;;15.10;99.90;;;;;;4917472;29;19915;-85
2023/10/27 03:27:45;;;;;;;;;;;15.20;99.90;;;;;;4936575;29;19920;-82
2023/10/27 03:30:11;;;;;;;;;;;15.20;99.90;;;;;;4944373;29;19903;-81
2023/10/27 03:32:37;;;;;;;;;;;15.30;99.90;;;;;;4929784;29;20295;-83
2023/10/27 03:35:03;;;;;;;;;;;15.30;99.90;;;;;;4918582;29;20323;-84
2023/10/27 03:37:28;;;;;;;;;;;15.30;99.90;;;;;;4924818;29;19954;-84
2023/10/27 03:39:54;;;;;;;;;;;15.40;99.90;;;;;;4939772;29;20017;-85
2023/10/27 03:42:19;;;;;;;;;;;15.30;99.90;;;;;;4936186;29;19907;-80
2023/10/27 03:44:45;;;;;;;;;;;15.30;99.90;;;;;;4939277;29;20420;-81
2023/10/27 03:47:10;;;;;;;;;;;15.20;99.90;;;;;;4939274;29;19906;-81
2023/10/27 03:49:36;;;;;;;;;;;15.20;99.90;;;;;;4949573;29;19907;-84
2023/10/27 03:52:01;;;;;;;;;;;15.20;99.90;;;;;;4936156;29;19906;-83
2023/10/27 03:54:28;;;;;;;;;;;15.30;99.90;;;;;;4937710;29;19907;-84
2023/10/27 03:56:53;;;;;;;;;;;15.20;99.90;;;;;;4935303;29;19910;-84
2023/10/27 03:59:19;;;;;;;;;;;15.20;99.90;;;;;;4935790;29;19917;-84
2023/10/27 04:01:45;;;;;;;;;;;15.10;99.90;;;;;;4937323;29;20401;-84
2023/10/27 04:04:11;;;;;;;;;;;15.00;99.90;;;;;;4937750;29;19911;-84
2023/10/27 04:06:37;;;;;;;;;;;14.90;99.90;;;;;;4938074;29;19911;-84
2023/10/27 04:09:03;;;;;;;;;;;14.90;99.90;;;;;;4935710;29;19906;-84
2023/10/27 04:11:29;;;;;;;;;;;14.80;99.90;;;;;;4920502;29;20434;-84
2023/10/27 04:13:54;;;;;;;;;;;14.80;99.90;;;;;;4917991;29;19907;-84
2023/10/27 04:16:20;;;;;;;;;;;14.90;99.90;;;;;;4902049;29;20406;-84
2023/10/27 04:18:45;;;;;;;;;;;14.90;99.90;;;;;;4936265;29;19914;-84
2023/10/27 04:21:11;;;;;;;;;;;15.00;99.90;;;;;;4952832;29;19906;-81
2023/10/27 04:23:37;;;;;;;;;;;15.10;99.90;;;;;;4955938;29;19921;-84
2023/10/27 04:26:02;;;;;;;;;;;15.30;99.90;;;;;;4938821;29;19906;-84
2023/10/27 04:28:28;;;;;;;;;;;15.40;99.90;;;;;;4938752;29;20334;-83
2023/10/27 04:30:53;;;;;;;;;;;15.50;99.90;;;;;;4935271;29;20010;-82
2023/10/27 04:33:20;;;;;;;;;;;15.50;99.90;;;;;;4940664;28;19899;-83
2023/10/27 04:35:45;;;;;;;;;;;15.50;99.90;;;;;;4963866;28;19902;-81
2023/10/27 04:38:11;;;;;;;;;;;15.60;99.90;;;;;;4963950;28;19898;-81
2023/10/27 04:40:37;;;;;;;;;;;15.50;99.90;;;;;;4950952;28;19962;-84
2023/10/27 04:43:03;;;;;;;;;;;15.50;99.90;;;;;;4933140;28;20398;-84
2023/10/27 04:45:29;;;;;;;;;;;15.50;99.90;;;;;;4918725;29;19922;-84
2023/10/27 04:47:54;;;;;;;;;;;15.50;99.90;;;;;;4935921;29;19906;-81
2023/10/27 04:50:20;;;;;;;;;;;15.40;99.90;;;;;;4938127;29;19906;-84
2023/10/27 04:52:45;;;;;;;;;;;15.30;99.90;;;;;;4953081;29;19906;-84
2023/10/27 04:55:11;;;;;;;;;;;15.30;99.90;;;;;;4955537;29;19910;-83
2023/10/27 04:57:37;;;;;;;;;;;15.30;99.90;;;;;;4949744;29;19911;-84
2023/10/27 05:00:04;;;;;;;;;;;15.30;99.90;;;;;;4948282;29;19906;-80
2023/10/27 05:02:30;;;;;;;;;;;14.80;99.90;;;;;;4938434;29;19907;-85
2023/10/27 05:04:55;;;;;;;;;;;14.30;99.90;;;;;;4954162;29;19917;-84
2023/10/27 05:07:21;;;;;;;;;;;14.10;99.90;;;;;;4934781;29;20354;-84
2023/10/27 05:09:46;;;;;;;;;;;13.80;99.90;;;;;;4928946;29;19918;-84
2023/10/27 05:12:12;;;;;;;;;;;13.60;99.90;;;;;;4929055;29;19914;-84
2023/10/27 05:14:37;;;;;;;;;;;13.50;99.90;;;;;;4918718;29;19930;-83
2023/10/27 05:17:03;;;;;;;;;;;13.50;99.90;;;;;;4923648;29;19910;-84
2023/10/27 05:19:28;;;;;;;;;;;13.40;99.90;;;;;;4943265;29;19918;-85
2023/10/27 05:21:54;;;;;;;;;;;13.40;99.90;;;;;;4953013;28;19918;-84
2023/10/27 05:24:19;;;;;;;;;;;13.30;99.90;;;;;;4935504;29;19910;-84
2023/10/27 05:26:45;;;;;;;;;;;13.20;99.90;;;;;;4936493;29;19914;-83
2023/10/27 05:29:10;;;;;;;;;;;13.10;99.90;;;;;;4938032;29;19950;-83
2023/10/27 05:31:36;;;;;;;;;;;13.10;99.90;;;;;;4952788;29;19973;-82
2023/10/27 05:34:01;;;;;;;;;;;13.10;99.90;;;;;;4919004;29;19907;-84
2023/10/27 05:36:27;;;;;;;;;;;13.10;99.90;;;;;;4919173;29;19914;-82
2023/10/27 05:38:52;;;;;;;;;;;13.10;99.90;;;;;;4923783;29;19962;-82
2023/10/27 05:41:18;;;;;;;;;;;13.20;99.90;;;;;;4959562;29;19922;-83
2023/10/27 05:43:43;;;;;;;;;;;13.30;99.90;;;;;;4923348;29;19919;-82
2023/10/27 05:46:09;;;;;;;;;;;13.40;99.90;;;;;;4918581;29;20397;-84
2023/10/27 05:48:34;;;;;;;;;;;13.50;99.90;;;;;;4919096;29;19911;-82
2023/10/27 05:51:00;;;;;;;;;;;13.60;99.90;;;;;;4936351;29;20007;-84
2023/10/27 05:53:26;;;;;;;;;;;13.70;99.90;;;;;;4934747;29;19911;-82
2023/10/27 05:55:51;;;;;;;;;;;13.80;99.90;;;;;;4929683;29;19915;-82
2023/10/27 05:58:17;;;;;;;;;;;13.80;99.90;;;;;;4934562;29;19906;-84
2023/10/27 06:00:42;;;;;;;;;;;13.80;99.90;;;;;;4937745;29;20362;-84
2023/10/27 06:03:08;;;;;;;;;;;13.60;99.90;;;;;;4918918;29;19907;-85
2023/10/27 06:05:33;;;;;;;;;;;13.60;99.90;;;;;;4935188;29;19918;-83
2023/10/27 06:07:59;;;;;;;;;;;13.50;99.90;;;;;;4941347;29;19907;-84
2023/10/27 06:10:24;;;;;;;;;;;13.40;99.90;;;;;;4935465;29;19936;-84
2023/10/27 06:12:50;;;;;;;;;;;13.40;99.90;;;;;;4906391;29;19914;-83
2023/10/27 06:15:15;;;;;;;;;;;13.40;99.90;;;;;;4927917;29;19907;-83
2023/10/27 06:17:41;;;;;;;;;;;13.30;99.90;;;;;;4944619;29;19926;-84
2023/10/27 06:20:07;;;;;;;;;;;13.30;99.90;;;;;;4937881;29;19913;-83
2023/10/27 06:22:32;;;;;;;;;;;13.30;99.90;;;;;;4939537;29;20583;-83
2023/10/27 06:24:58;;;;;;;;;;;13.40;99.90;;;;;;4937557;29;19911;-84
2023/10/27 06:27:23;;;;;;;;;;;13.60;99.90;;;;;;4939221;29;19934;-84
2023/10/27 06:29:49;;;;;;;;;;;13.80;99.90;;;;;;4939531;29;20309;-84
2023/10/27 06:32:15;;;;;;;;;;;14.00;99.90;;;;;;4939271;29;19907;-84
2023/10/27 06:34:41;;;;;;;;;;;14.10;99.90;;;;;;4945434;29;19923;-83
2023/10/27 06:37:07;;;;;;;;;;;14.10;99.90;;;;;;4962033;29;19927;-83
2023/10/27 06:39:33;;;;;;;;;;;14.10;99.90;;;;;;4957548;29;20262;-83
2023/10/27 06:41:59;;;;;;;;;;;14.00;99.90;;;;;;4938702;29;19906;-84
2023/10/27 06:44:24;;;;;;;;;;;14.10;99.90;;;;;;4940343;29;19922;-85
2023/10/27 06:46:50;;;;;;;;;;;14.00;99.90;;;;;;4957149;29;19925;-82
2023/10/27 06:49:15;;;;;;;;;;;14.00;99.90;;;;;;4957020;29;19906;-82
2023/10/27 06:51:41;;;;;;;;;;;14.00;99.90;;;;;;4943885;29;19907;-84
2023/10/27 06:54:07;;;;;;;;;;;14.00;99.90;;;;;;4920751;29;20001;-84
2023/10/27 06:56:32;;;;;;;;;;;14.10;99.90;;;;;;4920295;29;20833;-82
2023/10/27 06:58:58;;;;;;;;;;;14.10;99.90;;;;;;4920800;29;20294;-85
2023/10/27 07:01:24;;;;;;;;;;;14.30;99.90;;;;;;4936919;29;20129;-84
2023/10/27 07:03:50;;;;;;;;;;;14.30;99.90;;;;;;4917471;29;19942;-84
2023/10/27 07:06:17;;;;;;;;;;;14.30;99.90;;;;;;4920458;29;19907;-81
2023/10/27 07:08:44;;;;;;;;;;;14.30;99.90;;;;;;4922019;29;19906;-81
2023/10/27 07:11:09;;;;;;;;;;;14.30;99.90;;;;;;4935746;29;19907;-81
2023/10/27 07:13:35;;;;;;;;;;;14.30;99.90;;;;;;4937199;29;19907;-80
2023/10/27 07:16:01;;;;;;;;;;;14.30;99.90;;;;;;4912951;29;19959;-79
2023/10/27 07:18:26;;;;;;;;;;;14.40;99.90;;;;;;4926299;29;19923;-79
2023/10/27 07:20:53;;;;;;;;;;;14.50;99.90;;;;;;4919467;29;19915;-79
2023/10/27 07:23:18;;;;;;;;;;;14.50;99.90;;;;;;4920723;29;20382;-82
2023/10/27 07:25:44;;;;;;;;;;;14.00;99.90;;;;;;4898523;29;19919;-85
2023/10/27 07:28:09;;;;;;;;;;;12.90;99.90;;;;;;4891337;29;19955;-83
2023/10/27 07:30:35;;;;;;;;;;;12.30;99.90;;;;;;4928078;29;19961;-83
2023/10/27 07:33:01;;;;;;;;;;;12.00;99.90;;;;;;4914703;29;19977;-82
2023/10/27 07:35:26;;;;;;;;;;;11.90;99.90;;;;;;4915606;29;19915;-81
2023/10/27 07:37:52;;;;;;;;;;;11.80;99.90;;;;;;4914227;29;19921;-80
2023/10/27 07:40:18;;;;;;;;;;;11.80;99.90;;;;;;4913729;29;20046;-83
2023/10/27 07:42:44;;;;;;;;;;;11.80;99.90;;;;;;4904071;29;20439;-81
2023/10/27 07:45:10;;;;;;;;;;;11.90;99.90;;;;;;4882396;29;19922;-81
2023/10/27 07:47:35;;;;;;;;;;;12.00;99.90;;;;;;4906648;29;20374;-81
2023/10/27 07:50:01;;;;;;;;;;;12.10;99.90;;;;;;4901867;29;20379;-81
2023/10/27 07:52:27;;;;;;;;;;;12.20;99.90;;;;;;4903537;29;19915;-80
2023/10/27 07:54:53;;;;;;;;;;;12.20;99.90;;;;;;4939343;29;19930;-80
2023/10/27 07:57:19;;;;;;;;;;;12.30;99.90;;;;;;4941860;29;19903;-80
2023/10/27 07:59:45;;;;;;;;;;;12.20;99.90;;;;;;4933632;29;19926;-81
2023/10/27 08:02:10;;;;;;;;;;;12.20;99.90;;;;;;4891434;29;20001;-80
2023/10/27 08:04:37;;;;;;;;;;;12.30;99.90;;;;;;4916887;29;19918;-87
2023/10/27 08:07:06;;;;;;;;;;;12.40;99.90;;;;;;4891590;29;19918;-83
2023/10/27 08:09:31;;;;;;;;;;;12.50;99.90;;;;;;4917292;29;19914;-84
2023/10/27 08:11:57;;;;;;;;;;;12.70;99.90;;;;;;4908388;29;20231;-82
2023/10/27 08:14:23;;;;;;;;;;;12.60;99.90;;;;;;4897660;29;20260;-85
2023/10/27 08:16:49;;;;;;;;;;;12.60;99.90;;;;;;4886099;29;19954;-83
2023/10/27 08:19:15;;;;;;;;;;;12.70;99.90;;;;;;4913366;29;19966;-83
2023/10/27 08:21:46;;;;;;;;;;;12.70;99.90;;;;;;4915123;29;20313;-83
2023/10/27 08:24:12;;;;;;;;;;;12.80;99.90;;;;;;4900604;29;19959;-84
2023/10/27 08:26:38;;;;;;;;;;;13.00;99.90;;;;;;4913935;29;19914;-86
2023/10/27 08:29:03;;;;;;;;;;;13.10;99.90;;;;;;4915264;29;19957;-84
2023/10/27 08:31:29;;;;;;;;;;;13.20;99.90;;;;;;4922173;29;19918;-83
2023/10/27 08:33:59;;;;;;;;;;;13.30;99.90;;;;;;4919855;29;20875;-84
2023/10/27 08:36:25;;;;;;;;;;;13.50;99.90;;;;;;4923647;29;19958;-84
2023/10/27 08:38:52;;;;;;;;;;;13.80;99.90;;;;;;4918552;29;19965;-83
2023/10/27 08:41:18;;;;;;;;;;;14.10;99.90;;;;;;4925530;29;19915;-82
2023/10/27 08:43:44;;;;;;;;;;;14.40;99.90;;;;;;4921012;29;19929;-83
2023/10/27 08:46:09;;;;;;;;;;;14.00;99.90;;;;;;4917152;29;19915;-82
2023/10/27 08:48:35;;;;;;;;;;;13.70;99.90;;;;;;4909554;29;19911;-82
2023/10/27 08:51:04;;;;;;;;;;;13.60;99.90;;;;;;4898767;29;20375;-82
2023/10/27 08:53:30;;;;;;;;;;;13.70;99.90;;;;;;4898657;29;19914;-83
2023/10/27 08:55:56;;;;;;;;;;;13.90;99.90;;;;;;4917296;29;19958;-84
2023/10/27 08:58:23;;;;;;;;;;;13.90;99.90;;;;;;4916651;29;19915;-84
2023/10/27 09:00:48;;;;;;;;;;;13.90;99.90;;;;;;4916148;29;19914;-84
2023/10/27 09:03:17;;;;;;;;;;;13.90;99.90;;;;;;4915019;29;20283;-84
2023/10/27 09:05:44;;;;;;;;;;;14.00;99.90;;;;;;4923166;28;19918;-82
2023/10/27 09:08:10;;;;;;;;;;;14.20;99.90;;;;;;4929665;29;19895;-83
2023/10/27 09:10:36;;;;;;;;;;;14.50;99.90;;;;;;4935565;28;19899;-83
2023/10/27 09:13:02;;;;;;;;;;;14.70;99.90;;;;;;4932194;28;19915;-84
2023/10/27 09:15:39;;;;;;;;;;;15.00;99.90;;;;;;4905060;29;19917;-84
2023/10/27 09:18:05;;;;;;;;;;;15.10;99.90;;;;;;4907796;29;19927;-84
2023/10/27 09:20:30;;;;;;;;;;;15.30;99.90;;;;;;4906753;29;19989;-86
2023/10/27 09:23:06;;;;;;;;;;;15.40;99.90;;;;;;4914397;29;20358;-84
2023/10/27 09:25:32;;;;;;;;;;;15.40;99.90;;;;;;4908694;29;19914;-86
2023/10/27 09:27:59;;;;;;;;;;;15.50;99.90;;;;;;4902707;29;19919;-85
2023/10/27 09:30:25;;;;;;;;;;;15.50;99.90;;;;;;4903670;29;20107;-85
2023/10/27 09:32:51;;;;;;;;;;;15.50;99.90;;;;;;4913288;29;19930;-81
2023/10/27 09:35:18;;;;;;;;;;;15.40;99.90;;;;;;4909287;29;20344;-86
2023/10/27 09:37:46;;;;;;;;;;;15.40;99.90;;;;;;4918326;29;19921;-86
2023/10/27 09:40:13;;;;;;;;;;;15.10;99.90;;;;;;4912911;29;19919;-86
2023/10/27 09:42:39;;;;;;;;;;;14.80;99.90;;;;;;4915284;29;19911;-85
2023/10/27 09:45:13;;;;;;;;;;;14.40;99.90;;;;;;4900823;29;19938;-84
2023/10/27 09:47:46;;;;;;;;;;;14.20;99.90;;;;;;4902384;29;20006;-84
2023/10/27 09:50:13;;;;;;;;;;;14.30;99.90;;;;;;4914246;29;20039;-84
2023/10/27 09:52:40;;;;;;;;;;;14.30;99.90;;;;;;4921824;29;19911;-83
2023/10/27 09:55:07;;;;;;;;;;;13.90;99.90;;;;;;4912194;29;19931;-85
2023/10/27 09:57:33;;;;;;;;;;;13.80;99.90;;;;;;4912110;29;19919;-87
2023/10/27 09:59:59;;;;;;;;;;;13.60;99.90;;;;;;4900237;29;20343;-83
2023/10/27 10:02:25;;;;;;;;;;;13.50;99.90;;;;;;4902332;29;19944;-86
2023/10/27 10:04:50;;;;;;;;;;;13.60;99.90;;;;;;4908552;29;19918;-85
2023/10/27 10:07:29;;;;;;;;;;;13.60;99.90;;;;;;4910113;29;19918;-85
2023/10/27 10:09:55;;;;;;;;;;;13.40;99.90;;;;;;4918165;29;19923;-87
2023/10/27 10:12:20;;;;;;;;;;;13.40;99.90;;;;;;4915610;29;19939;-86
2023/10/27 10:14:48;;;;;;;;;;;13.40;99.90;;;;;;4916451;29;19907;-85
2023/10/27 10:17:34;;;;;;;;;;;13.40;99.90;;;;;;4918144;29;19915;-85
2023/10/27 10:19:59;;;;;;;;;;;13.50;99.90;;;;;;4935812;29;20432;-81
2023/10/27 10:22:37;;;;;;;;;;;13.60;99.90;;;;;;4927014;29;19969;-82
2023/10/27 10:25:18;;;;;;;;;;;13.60;99.90;;;;;;4919813;29;19969;-80
2023/10/27 10:28:02;;;;;;;;;;;13.60;99.90;;;;;;4930032;29;20050;-83
2023/10/27 10:30:27;;;;;;;;;;;13.60;99.90;;;;;;4920380;29;19910;-80
2023/10/27 10:33:14;;;;;;;;;;;13.60;99.90;;;;;;4951264;29;20010;-81
2023/10/27 10:35:40;;;;;;;;;;;13.70;99.90;;;;;;4943580;29;19911;-80
2023/10/27 10:38:24;;;;;;;;;;;13.80;99.90;;;;;;4936273;29;19907;-86
2023/10/27 10:40:50;;;;;;;;;;;13.90;99.90;;;;;;4928230;29;19911;-81
2023/10/27 10:43:16;;;;;;;;;;;13.90;99.90;;;;;;4923462;29;19915;-82
2023/10/27 10:45:45;;;;;;;;;;;14.00;99.90;;;;;;4900922;29;19919;-84
2023/10/27 10:48:12;;;;;;;;;;;14.00;99.90;;;;;;4924082;29;19910;-81
2023/10/27 10:50:37;;;;;;;;;;;14.00;99.90;;;;;;4935368;29;19915;-83
2023/10/27 10:53:17;;;;;;;;;;;14.30;99.90;;;;;;4935167;29;20422;-82
2023/10/27 10:55:46;;;;;;;;;;;14.60;99.90;;;;;;4941990;29;19956;-83
2023/10/27 10:58:21;;;;;;;;;;;15.00;99.90;;;;;;4918476;29;19994;-83
2023/10/27 11:00:50;;;;;;;;;;;14.70;99.90;;;;;;4933218;29;19917;-82
2023/10/27 11:03:16;;;;;;;;;;;13.30;99.90;;;;;;4918207;29;19907;-83
2023/10/27 11:05:41;;;;;;;;;;;12.40;99.90;;;;;;4922822;29;20441;-87
2023/10/27 11:08:07;;;;;;;;;;;12.00;99.90;;;;;;4936237;29;19993;-83
2023/10/27 11:10:33;;;;;;;;;;;12.00;99.90;;;;;;4936414;29;19934;-83
2023/10/27 11:13:03;;;;;;;;;;;12.20;99.90;;;;;;4926375;29;19966;-83
2023/10/27 11:15:51;;;;;;;;;;;12.30;99.90;;;;;;4918358;29;19914;-84
2023/10/27 11:18:16;;;;;;;;;;;12.40;99.90;;;;;;4922879;29;19958;-86
2023/10/27 11:20:45;;;;;;;;;;;12.60;99.90;;;;;;4912043;29;19915;-88
2023/10/27 11:23:10;;;;;;;;;;;12.60;99.90;;;;;;4900291;29;19962;-83
2023/10/27 11:25:36;;;;;;;;;;;12.60;99.90;;;;;;4900645;29;19934;-84
2023/10/27 11:28:17;;;;;;;;;;;12.50;99.90;;;;;;4902909;29;20006;-84
2023/10/27 11:30:43;;;;;;;;;;;12.50;99.90;;;;;;4882195;29;19943;-89
2023/10/27 11:33:11;;;;;;;;;;;12.60;99.90;;;;;;4898817;29;19922;-84
2023/10/27 11:35:44;;;;;;;;;;;12.60;99.90;;;;;;4917302;29;19911;-84
2023/10/27 11:38:10;;;;;;;;;;;12.60;99.90;;;;;;4927344;29;19946;-86
2023/10/27 11:40:35;;;;;;;;;;;12.50;99.90;;;;;;4939566;29;19915;-84
2023/10/27 11:43:01;;;;;;;;;;;12.50;99.90;;;;;;4905278;29;19919;-83
2023/10/27 11:45:26;;;;;;;;;;;12.80;99.90;;;;;;4890662;29;19927;-89
2023/10/27 11:47:52;;;;;;;;;;;12.90;99.90;;;;;;4893425;29;19921;-85
2023/10/27 11:50:17;;;;;;;;;;;13.00;99.90;;;;;;4900563;29;20369;-83
2023/10/27 11:52:43;;;;;;;;;;;13.20;99.90;;;;;;4916567;29;19922;-83
2023/10/27 11:55:08;;;;;;;;;;;13.20;99.90;;;;;;4918555;29;19954;-83
2023/10/27 11:57:34;;;;;;;;;;;13.30;99.90;;;;;;4911553;29;19997;-81
2023/10/27 11:59:59;;;;;;;;;;;13.30;99.90;;;;;;4900015;29;19907;-84
2023/10/27 12:02:25;;;;;;;;;;;13.30;99.90;;;;;;4893838;29;20335;-82
2023/10/27 12:04:51;;;;;;;;;;;13.40;99.90;;;;;;4881229;29;19972;-85
2023/10/27 12:07:17;;;;;;;;;;;13.50;99.90;;;;;;4896217;29;19915;-82
2023/10/27 12:09:43;;;;;;;;;;;13.60;99.90;;;;;;4916788;29;19918;-84
2023/10/27 12:12:09;;;;;;;;;;;13.80;99.90;;;;;;4908664;29;19959;-82
2023/10/27 12:14:35;;;;;;;;;;;13.90;99.90;;;;;;4881056;29;20397;-82
2023/10/27 12:17:00;;;;;;;;;;;14.00;99.90;;;;;;4887225;29;20018;-82
2023/10/27 12:19:27;;;;;;;;;;;14.00;99.90;;;;;;4921195;29;20359;-83
2023/10/27 12:21:52;;;;;;;;;;;14.10;99.90;;;;;;4909231;29;19959;-84
2023/10/27 12:24:18;;;;;;;;;;;14.20;99.90;;;;;;4880869;29;20383;-81
2023/10/27 12:26:46;;;;;;;;;;;14.20;99.90;;;;;;4891080;29;20295;-82
2023/10/27 12:29:12;;;;;;;;;;;14.20;99.90;;;;;;4916861;29;20397;-79
2023/10/27 12:31:37;;;;;;;;;;;14.10;99.90;;;;;;4907022;29;19915;-86
2023/10/27 12:34:04;;;;;;;;;;;14.10;99.90;;;;;;4881116;29;19916;-80
2023/10/27 12:36:29;;;;;;;;;;;13.80;99.90;;;;;;4886345;29;19998;-81
2023/10/27 12:38:55;;;;;;;;;;;13.50;99.90;;;;;;4905986;29;19967;-82
2023/10/27 12:41:20;;;;;;;;;;;13.20;99.90;;;;;;4916212;29;19946;-83
2023/10/27 12:43:46;;;;;;;;;;;13.10;99.90;;;;;;4897845;29;20014;-84
2023/10/27 12:46:12;;;;;;;;;;;13.00;99.90;;;;;;4886424;29;19917;-82
2023/10/27 12:48:38;;;;;;;;;;;13.00;99.90;;;;;;4890823;29;19978;-84
2023/10/27 12:51:04;;;;;;;;;;;13.20;99.90;;;;;;4885673;29;19938;-82
2023/10/27 12:53:29;;;;;;;;;;;13.90;99.90;;;;;;4916056;29;19911;-83
2023/10/27 12:55:55;;;;;;;;;;;14.40;99.90;;;;;;4914341;29;19921;-83
2023/10/27 12:58:21;;;;;;;;;;;14.60;99.90;;;;;;4919448;29;19911;-83
2023/10/27 13:00:48;;;;;;;;;;;15.20;99.90;;;;;;4889343;29;20002;-82
2023/10/27 13:03:16;;;;;;;;;;;15.70;99.90;;;;;;4892840;29;19915;-82
2023/10/27 13:05:42;;;;;;;;;;;15.90;99.90;;;;;;4899482;29;19951;-83
2023/10/27 13:08:07;;;;;;;;;;;15.90;99.90;;;;;;4892381;29;19977;-82
2023/10/27 13:10:33;;;;;;;;;;;15.70;99.90;;;;;;4900659;29;19922;-81
2023/10/27 13:13:00;;;;;;;;;;;15.90;99.90;;;;;;4886660;29;19931;-80
2023/10/27 13:15:26;;;;;;;;;;;16.10;99.90;;;;;;4884625;29;19914;-82
2023/10/27 13:17:51;;;;;;;;;;;16.30;99.90;;;;;;4897986;29;19997;-82
2023/10/27 13:20:18;;;;;;;;;;;16.60;99.90;;;;;;4934602;29;20338;-81
2023/10/27 13:22:45;;;;;;;;;;;16.90;99.90;;;;;;4917194;29;19915;-85
2023/10/27 13:25:10;;;;;;;;;;;16.60;99.90;;;;;;4919168;29;19925;-81
2023/10/27 13:27:37;;;;;;;;;;;16.40;99.90;;;;;;4919187;29;19911;-85
2023/10/27 13:30:06;;;;;;;;;;;16.60;99.90;;;;;;4932760;29;19951;-85
2023/10/27 13:32:32;;;;;;;;;;;16.80;99.90;;;;;;4905388;29;20291;-82
2023/10/27 13:34:58;;;;;;;;;;;17.00;99.90;;;;;;4930385;29;19910;-84
2023/10/27 13:37:23;;;;;;;;;;;16.90;99.90;;;;;;4916803;29;19922;-82
2023/10/27 13:39:49;;;;;;;;;;;17.00;99.90;;;;;;4916056;29;19907;-81
2023/10/27 13:42:15;;;;;;;;;;;17.00;99.90;;;;;;4913998;29;19919;-83
2023/10/27 13:44:41;;;;;;;;;;;16.60;99.90;;;;;;4899837;29;20338;-85
2023/10/27 13:47:07;;;;;;;;;;;16.20;99.90;;;;;;4902324;29;20339;-81
2023/10/27 13:49:39;;;;;;;;;;;16.00;99.90;;;;;;4940851;29;20268;-82
2023/10/27 13:52:05;;;;;;;;;;;15.90;99.90;;;;;;4932587;29;19934;-83
2023/10/27 13:54:31;;;;;;;;;;;16.40;99.90;;;;;;4920115;29;20366;-83
2023/10/27 13:56:56;;;;;;;;;;;16.80;99.90;;;;;;4912130;29;19992;-82
2023/10/27 13:59:23;;;;;;;;;;;16.80;99.90;;;;;;4918744;29;19942;-81
2023/10/27 14:01:48;;;;;;;;;;;16.60;99.90;;;;;;4943740;29;19914;-85
2023/10/27 14:04:14;;;;;;;;;;;17.10;99.90;;;;;;4918350;29;19963;-81
2023/10/27 14:06:46;;;;;;;;;;;17.30;99.90;;;;;;4917609;29;19907;-84
2023/10/27 14:09:15;;;;;;;;;;;17.10;99.90;;;;;;4927770;29;19918;-81
2023/10/27 14:11:41;;;;;;;;;;;17.10;99.90;;;;;;4947392;29;20373;-81